Terminal Aerodrome Forecast
Issued by NWS

Home | Current Version | Previous Version | Text Only | Print | Product List | Glossary On
Versions: 1 2 3 4 5 6 7 8 9 10 11 12
000
FTAK31 PAJN 021100
TAFAPG
TAF
PAPG 021134Z 0212/0312 23005KT P6SM SKC
     FM021600 06006KT P6SM SCT050 SCT100
     FM030400 06004KT P6SM SCT050 BKN100
     FM031000 06004KT P6SM VCSH SCT025 BKN060
      AMD LTD TO CLD VIS AND WIND 0212/0215=

USA.gov is the U.S. government's official web portal to all federal, state and local government web resources and services.